createdAt,value
2017-05-10T00:01:25.175Z,4.40
2017-05-10T00:03:53.774Z,4.50
2017-05-10T00:06:22.324Z,4.50
2017-05-10T00:08:50.867Z,4.40
2017-05-10T00:11:19.438Z,4.40
2017-05-10T00:13:47.979Z,4.40
2017-05-10T00:16:16.522Z,4.50
2017-05-10T00:18:45.121Z,4.40
2017-05-10T00:21:13.668Z,4.50
2017-05-10T00:23:42.197Z,4.30
2017-05-10T00:26:10.791Z,4.20
2017-05-10T00:28:39.346Z,4.20
2017-05-10T00:31:08.640Z,4.20
2017-05-10T00:33:37.259Z,4.20
2017-05-10T00:36:05.838Z,4.10
2017-05-10T00:38:34.418Z,4.00
2017-05-10T00:41:02.991Z,3.90
2017-05-10T00:43:31.545Z,3.80
2017-05-10T00:46:00.095Z,3.80
2017-05-10T00:48:28.675Z,3.70
2017-05-10T00:50:57.251Z,3.60
2017-05-10T00:53:25.797Z,3.60
2017-05-10T00:55:54.402Z,3.50
2017-05-10T00:58:22.942Z,3.50
2017-05-10T01:00:51.504Z,3.40
2017-05-10T01:03:20.094Z,3.20
2017-05-10T01:05:48.634Z,3.10
2017-05-10T01:08:17.180Z,3.00
2017-05-10T01:10:45.783Z,3.00
2017-05-10T01:13:14.335Z,2.90
2017-05-10T01:15:42.888Z,2.70
2017-05-10T01:18:11.501Z,2.70
2017-05-10T01:20:40.072Z,2.60
2017-05-10T01:23:08.628Z,2.60
2017-05-10T01:25:37.201Z,2.50
2017-05-10T01:28:05.774Z,2.40
2017-05-10T01:30:34.338Z,2.30
2017-05-10T01:33:02.933Z,2.10
2017-05-10T01:35:31.482Z,2.00
2017-05-10T01:38:00.021Z,1.90
2017-05-10T01:40:28.612Z,1.80
2017-05-10T01:42:57.159Z,1.80
2017-05-10T01:45:25.724Z,1.70
2017-05-10T01:47:54.322Z,1.60
2017-05-10T01:50:22.878Z,1.60
2017-05-10T01:52:51.430Z,1.60
2017-05-10T01:55:20.003Z,1.50
2017-05-10T01:57:48.549Z,1.50
2017-05-10T02:00:17.101Z,1.50
2017-05-10T02:02:45.695Z,1.40
2017-05-10T02:05:14.245Z,1.50
2017-05-10T02:07:42.787Z,1.50
2017-05-10T02:10:11.405Z,1.40
2017-05-10T02:12:39.954Z,1.40
2017-05-10T02:15:08.503Z,1.30
2017-05-10T02:17:37.102Z,1.40
2017-05-10T02:20:05.674Z,1.30
2017-05-10T02:22:34.209Z,1.30
2017-05-10T02:25:02.804Z,1.30
2017-05-10T02:27:31.385Z,1.30
2017-05-10T02:29:59.974Z,1.40
2017-05-10T02:32:28.599Z,1.50
2017-05-10T02:34:57.169Z,1.60
2017-05-10T02:37:25.759Z,1.70
2017-05-10T02:39:54.369Z,1.80
2017-05-10T02:42:22.935Z,1.90
2017-05-10T02:44:51.516Z,1.80
2017-05-10T02:47:20.101Z,1.80
2017-05-10T02:49:48.649Z,1.90
2017-05-10T02:52:17.199Z,1.90
2017-05-10T02:54:45.794Z,1.90
2017-05-10T02:57:14.342Z,1.80
2017-05-10T02:59:42.880Z,1.70
2017-05-10T03:02:11.467Z,1.70
2017-05-10T03:04:40.028Z,1.80
2017-05-10T03:07:08.595Z,1.80
2017-05-10T03:09:37.184Z,1.90
2017-05-10T03:12:05.728Z,1.80
2017-05-10T03:14:34.249Z,1.80
2017-05-10T03:17:02.805Z,1.80
2017-05-10T03:19:31.332Z,2.00
2017-05-10T03:21:59.857Z,2.10
2017-05-10T03:24:28.433Z,2.00
2017-05-10T03:26:56.961Z,2.10
2017-05-10T03:29:25.504Z,2.10
2017-05-10T03:31:54.070Z,2.10
2017-05-10T03:34:22.608Z,2.10
2017-05-10T03:36:51.130Z,2.10
2017-05-10T03:39:19.695Z,2.30
2017-05-10T03:41:48.226Z,2.30
2017-05-10T03:44:16.746Z,2.60
2017-05-10T03:46:45.308Z,2.80
2017-05-10T03:49:13.829Z,3.00
2017-05-10T03:51:42.345Z,3.10
2017-05-10T03:54:10.925Z,3.20
2017-05-10T03:56:39.454Z,3.30
2017-05-10T03:59:07.975Z,3.40
2017-05-10T04:01:36.546Z,3.50
2017-05-10T04:04:05.064Z,3.60
2017-05-10T04:06:33.587Z,3.70
2017-05-10T04:09:02.185Z,3.80
2017-05-10T04:11:30.709Z,3.90
2017-05-10T04:13:59.236Z,4.00
2017-05-10T04:16:28.589Z,4.10
2017-05-10T04:18:57.108Z,4.20
2017-05-10T04:21:25.637Z,4.20
2017-05-10T04:23:54.207Z,4.30
2017-05-10T04:26:22.737Z,4.30
2017-05-10T04:28:51.254Z,4.30
2017-05-10T04:31:19.844Z,4.50
2017-05-10T04:33:48.377Z,4.50
2017-05-10T04:36:16.915Z,4.60
2017-05-10T04:38:45.473Z,4.70
2017-05-10T04:41:13.988Z,4.90
2017-05-10T04:43:42.524Z,5.00
2017-05-10T04:46:11.114Z,5.20
2017-05-10T04:48:39.640Z,5.70
2017-05-10T04:51:08.152Z,6.30
2017-05-10T04:53:36.723Z,6.90
2017-05-10T04:56:05.260Z,7.00
2017-05-10T04:58:33.782Z,7.30
2017-05-10T05:01:02.377Z,7.70
2017-05-10T05:03:30.907Z,7.90
2017-05-10T05:05:59.430Z,7.70
2017-05-10T05:08:28.025Z,8.10
2017-05-10T05:10:56.608Z,8.20
2017-05-10T05:13:25.144Z,8.60
2017-05-10T05:15:53.693Z,9.20
2017-05-10T05:18:22.212Z,9.60
2017-05-10T05:20:50.720Z,9.70
2017-05-10T05:23:19.276Z,10.10
2017-05-10T05:25:47.785Z,10.20
2017-05-10T05:28:16.337Z,10.60
2017-05-10T05:30:44.892Z,10.50
2017-05-10T05:33:13.400Z,10.70
2017-05-10T05:35:41.914Z,10.70
2017-05-10T05:38:10.463Z,10.80
2017-05-10T05:40:38.967Z,10.90
2017-05-10T05:43:07.491Z,10.80
2017-05-10T05:45:36.046Z,11.20
2017-05-10T05:48:04.555Z,11.50
2017-05-10T05:50:33.092Z,11.70
2017-05-10T05:53:01.666Z,11.70
2017-05-10T05:55:30.185Z,11.90
2017-05-10T05:57:58.724Z,11.70
2017-05-10T06:00:27.287Z,11.60
2017-05-10T06:02:55.828Z,11.30
2017-05-10T06:05:24.357Z,11.20
2017-05-10T06:07:52.948Z,11.10
2017-05-10T06:10:21.469Z,11.40
2017-05-10T06:12:49.984Z,11.20
2017-05-10T06:15:18.543Z,11.20
2017-05-10T06:17:47.064Z,11.40
2017-05-10T06:20:15.580Z,11.70
2017-05-10T06:22:44.129Z,11.80
2017-05-10T06:25:12.635Z,12.10
2017-05-10T06:27:41.140Z,12.10
2017-05-10T06:30:10.433Z,11.90
2017-05-10T06:32:38.951Z,11.90
2017-05-10T06:35:07.451Z,11.60
2017-05-10T06:37:36.015Z,12.00
2017-05-10T06:40:04.526Z,12.40
2017-05-10T06:42:33.039Z,13.20
2017-05-10T06:45:01.584Z,14.00
2017-05-10T06:47:30.080Z,15.00
2017-05-10T06:49:58.585Z,16.10
2017-05-10T06:52:27.128Z,17.30
2017-05-10T06:54:55.632Z,18.30
2017-05-10T06:57:24.140Z,19.10
2017-05-10T06:59:52.685Z,19.50
2017-05-10T07:02:21.189Z,19.80
2017-05-10T07:04:49.696Z,19.80
2017-05-10T07:07:18.237Z,18.70
2017-05-10T07:09:46.738Z,18.30
2017-05-10T07:12:15.250Z,17.70
2017-05-10T07:14:43.830Z,16.80
2017-05-10T07:17:12.342Z,16.80
2017-05-10T07:19:40.852Z,17.70
2017-05-10T07:22:09.410Z,18.70
2017-05-10T07:24:37.928Z,19.50
2017-05-10T07:27:06.477Z,20.20
2017-05-10T07:29:35.033Z,19.60
2017-05-10T07:32:03.537Z,20.10
2017-05-10T07:34:32.051Z,20.40
2017-05-10T07:37:00.596Z,21.30
2017-05-10T07:39:29.101Z,20.40
2017-05-10T07:41:57.612Z,19.30
2017-05-10T07:44:26.166Z,18.30
2017-05-10T07:46:54.682Z,17.50
2017-05-10T07:49:23.198Z,16.80
2017-05-10T07:51:51.743Z,16.40
2017-05-10T07:54:20.245Z,15.60
2017-05-10T07:56:48.748Z,15.50
2017-05-10T07:59:17.295Z,14.80
2017-05-10T08:01:45.798Z,15.80
2017-05-10T08:04:14.302Z,16.10
2017-05-10T08:06:42.868Z,15.80
2017-05-10T08:09:11.363Z,15.70
2017-05-10T08:11:39.874Z,15.90
2017-05-10T08:14:08.426Z,16.00
2017-05-10T08:16:36.947Z,17.20
2017-05-10T08:19:05.453Z,18.50
2017-05-10T08:21:34.006Z,18.90
2017-05-10T08:24:02.522Z,17.90
2017-05-10T08:26:31.051Z,16.80
2017-05-10T08:28:59.627Z,15.50
2017-05-10T08:31:28.138Z,14.70
2017-05-10T08:33:56.653Z,14.50
2017-05-10T08:36:25.199Z,15.20
2017-05-10T08:38:53.706Z,16.60
2017-05-10T08:41:22.204Z,17.40
2017-05-10T08:43:50.754Z,18.70
2017-05-10T08:46:19.265Z,19.40
2017-05-10T08:48:47.770Z,20.20
2017-05-10T08:51:16.326Z,20.90
2017-05-10T08:53:44.835Z,20.80
2017-05-10T08:56:14.088Z,19.90
2017-05-10T08:58:42.636Z,18.60
2017-05-10T09:01:11.142Z,17.80
2017-05-10T09:03:39.648Z,17.10
2017-05-10T09:06:08.193Z,16.20
2017-05-10T09:08:36.704Z,15.80
2017-05-10T09:11:05.205Z,15.50
2017-05-10T09:13:33.774Z,15.20
2017-05-10T09:16:02.284Z,15.40
2017-05-10T09:18:30.791Z,16.50
2017-05-10T09:20:59.341Z,17.80
2017-05-10T09:23:27.841Z,18.70
2017-05-10T09:25:56.355Z,19.60
2017-05-10T09:28:24.904Z,19.70
2017-05-10T09:30:53.408Z,19.30
2017-05-10T09:33:21.922Z,19.30
2017-05-10T09:35:50.487Z,19.10
2017-05-10T09:38:18.992Z,18.90
2017-05-10T09:40:47.560Z,18.90
2017-05-10T09:43:16.105Z,18.70
2017-05-10T09:45:44.616Z,18.30
2017-05-10T09:48:13.124Z,18.00
2017-05-10T09:50:41.712Z,18.40
2017-05-10T09:53:10.213Z,18.60
2017-05-10T09:55:38.740Z,18.70
2017-05-10T09:58:07.286Z,18.70
2017-05-10T10:00:35.800Z,18.00
2017-05-10T10:03:04.309Z,17.50
2017-05-10T10:05:32.849Z,17.50
2017-05-10T10:08:01.353Z,17.70
2017-05-10T10:10:29.873Z,17.80
2017-05-10T10:12:58.424Z,17.70
2017-05-10T10:15:26.932Z,16.80
2017-05-10T10:17:55.437Z,16.80
2017-05-10T10:20:24.008Z,16.80
2017-05-10T10:22:52.517Z,16.30
2017-05-10T10:25:21.030Z,16.10
2017-05-10T10:27:49.572Z,16.10
2017-05-10T10:30:18.079Z,15.90
2017-05-10T10:32:46.594Z,15.80
2017-05-10T10:35:15.146Z,15.90
2017-05-10T10:37:43.660Z,16.30
2017-05-10T10:40:12.166Z,16.70
2017-05-10T10:42:40.718Z,17.40
2017-05-10T10:45:09.241Z,17.70
2017-05-10T10:47:37.749Z,17.60
2017-05-10T10:50:06.304Z,17.40
2017-05-10T10:52:34.813Z,17.50
2017-05-10T10:55:03.316Z,17.70
2017-05-10T10:57:31.871Z,18.00
2017-05-10T11:00:00.380Z,17.80
2017-05-10T11:02:28.904Z,17.60
2017-05-10T11:04:57.444Z,17.20
2017-05-10T11:07:25.957Z,17.30
2017-05-10T11:09:54.467Z,17.70
2017-05-10T11:12:23.039Z,17.90
2017-05-10T11:14:51.547Z,18.00
2017-05-10T11:17:20.047Z,18.20
2017-05-10T11:19:48.603Z,18.50
2017-05-10T11:22:17.112Z,18.40
2017-05-10T11:24:45.612Z,18.80
2017-05-10T11:27:14.156Z,18.90
2017-05-10T11:29:42.657Z,18.20
2017-05-10T11:32:11.163Z,18.20
2017-05-10T11:34:39.705Z,18.40
2017-05-10T11:37:08.206Z,18.50
2017-05-10T11:39:36.713Z,18.40
2017-05-10T11:42:05.266Z,18.20
2017-05-10T11:44:33.776Z,18.20
2017-05-10T11:47:02.276Z,17.90
2017-05-10T11:49:30.818Z,17.90
2017-05-10T11:51:59.325Z,17.70
2017-05-10T11:54:27.830Z,17.70
2017-05-10T11:56:56.389Z,17.70
2017-05-10T11:59:24.908Z,17.40
2017-05-10T12:01:53.411Z,17.20
2017-05-10T12:04:22.050Z,17.10
2017-05-10T12:06:50.653Z,17.30
2017-05-10T12:09:19.275Z,17.20
2017-05-10T12:11:47.919Z,17.20
2017-05-10T12:14:16.511Z,17.50
2017-05-10T12:16:45.123Z,17.30
2017-05-10T12:19:13.769Z,17.10
2017-05-10T12:21:42.277Z,16.80
2017-05-10T12:24:10.775Z,16.70
2017-05-10T12:26:39.325Z,16.40
2017-05-10T12:29:07.830Z,16.40
2017-05-10T12:31:36.333Z,16.50
2017-05-10T12:34:04.913Z,16.40
2017-05-10T12:36:33.416Z,16.70
2017-05-10T12:39:01.930Z,16.70
2017-05-10T12:41:30.477Z,16.50
2017-05-10T12:43:58.985Z,17.20
2017-05-10T12:46:27.491Z,17.60
2017-05-10T12:48:56.043Z,17.30
2017-05-10T12:51:24.555Z,16.80
2017-05-10T12:53:53.055Z,16.90
2017-05-10T12:56:21.598Z,17.20
2017-05-10T12:58:50.103Z,17.60
2017-05-10T13:01:18.603Z,17.80
2017-05-10T13:03:47.149Z,17.70
2017-05-10T13:06:15.664Z,17.60
2017-05-10T13:08:44.173Z,17.70
2017-05-10T13:11:12.711Z,17.50
2017-05-10T13:13:41.216Z,17.30
2017-05-10T13:16:09.728Z,17.30
2017-05-10T13:18:38.306Z,17.40
2017-05-10T13:21:06.815Z,17.50
2017-05-10T13:23:35.336Z,17.60
2017-05-10T13:26:03.881Z,17.90
2017-05-10T13:28:32.394Z,18.40
2017-05-10T13:31:00.907Z,18.20
2017-05-10T13:33:29.453Z,18.10
2017-05-10T13:35:58.014Z,18.20
2017-05-10T13:38:26.534Z,17.80
2017-05-10T13:40:55.081Z,17.50
2017-05-10T13:43:23.584Z,17.80
2017-05-10T13:45:52.092Z,18.20
2017-05-10T13:48:20.641Z,18.20
2017-05-10T13:50:49.153Z,18.00
2017-05-10T13:53:17.667Z,17.70
2017-05-10T13:55:46.220Z,17.50
2017-05-10T13:58:14.736Z,17.20
2017-05-10T14:00:43.245Z,16.80
2017-05-10T14:03:11.796Z,16.80
2017-05-10T14:05:40.306Z,16.70
2017-05-10T14:08:08.826Z,16.80
2017-05-10T14:10:37.386Z,17.00
2017-05-10T14:13:05.895Z,17.20
2017-05-10T14:15:34.407Z,17.50
2017-05-10T14:18:02.982Z,17.70
2017-05-10T14:20:31.493Z,17.50
2017-05-10T14:23:00.003Z,17.50
2017-05-10T14:25:28.552Z,17.70
2017-05-10T14:27:57.051Z,17.40
2017-05-10T14:30:25.545Z,17.50
2017-05-10T14:32:54.095Z,17.60
2017-05-10T14:35:23.263Z,17.60
2017-05-10T14:37:51.772Z,17.60
2017-05-10T14:40:20.326Z,17.60
2017-05-10T14:42:48.846Z,17.60
2017-05-10T14:45:17.357Z,17.30
2017-05-10T14:47:45.925Z,17.10
2017-05-10T14:50:14.432Z,16.70
2017-05-10T14:52:42.942Z,16.70
2017-05-10T14:55:12.237Z,16.80
2017-05-10T14:57:40.762Z,16.80
2017-05-10T15:00:09.312Z,16.70
2017-05-10T15:02:37.873Z,16.60
2017-05-10T15:05:06.384Z,16.40
2017-05-10T15:07:34.890Z,16.50
2017-05-10T15:10:03.456Z,16.40
2017-05-10T15:12:31.965Z,16.40
2017-05-10T15:15:00.473Z,16.40
2017-05-10T15:17:29.058Z,16.60
2017-05-10T15:19:57.561Z,16.90
2017-05-10T15:22:26.081Z,17.30
2017-05-10T15:24:54.654Z,17.60
2017-05-10T15:27:23.165Z,17.60
2017-05-10T15:29:51.671Z,17.50
2017-05-10T15:32:20.265Z,17.10
2017-05-10T15:34:48.803Z,16.60
2017-05-10T15:37:18.076Z,16.40
2017-05-10T15:39:46.646Z,16.30
2017-05-10T15:42:15.217Z,16.40
2017-05-10T15:44:43.759Z,16.50
2017-05-10T15:47:12.346Z,16.60
2017-05-10T15:49:40.938Z,16.70
2017-05-10T15:52:09.782Z,16.60
2017-05-10T15:54:38.332Z,16.50
2017-05-10T15:57:06.925Z,16.20
2017-05-10T15:59:35.451Z,15.90
2017-05-10T16:02:04.126Z,15.80
2017-05-10T16:04:32.679Z,15.80
2017-05-10T16:07:01.234Z,15.80
2017-05-10T16:09:29.798Z,15.80
2017-05-10T16:11:58.310Z,15.80
2017-05-10T16:14:26.849Z,15.70
2017-05-10T16:16:55.417Z,15.80
2017-05-10T16:19:23.940Z,16.00
2017-05-10T16:21:52.453Z,15.90
2017-05-10T16:24:21.420Z,15.90
2017-05-10T16:26:49.932Z,15.80
2017-05-10T16:29:18.487Z,15.60
2017-05-10T16:31:47.531Z,15.40
2017-05-10T16:34:16.052Z,15.40
2017-05-10T16:36:44.578Z,15.40
2017-05-10T16:39:13.148Z,15.30
2017-05-10T16:41:41.755Z,15.20
2017-05-10T16:44:10.285Z,15.10
2017-05-10T16:46:38.842Z,15.10
2017-05-10T16:49:07.360Z,15.10
2017-05-10T16:51:35.879Z,15.10
2017-05-10T16:54:04.452Z,15.00
2017-05-10T16:56:32.977Z,15.00
2017-05-10T16:59:01.625Z,14.90
2017-05-10T17:01:30.178Z,14.80
2017-05-10T17:03:58.704Z,14.80
2017-05-10T17:06:27.237Z,14.70
2017-05-10T17:08:55.794Z,14.90
2017-05-10T17:11:24.329Z,14.70
2017-05-10T17:13:52.856Z,14.70
2017-05-10T17:16:21.416Z,14.60
2017-05-10T17:18:49.943Z,14.60
2017-05-10T17:21:18.475Z,14.50
2017-05-10T17:23:47.087Z,14.40
2017-05-10T17:26:15.610Z,14.20
2017-05-10T17:28:44.134Z,14.10
2017-05-10T17:31:12.735Z,13.90
2017-05-10T17:33:41.281Z,13.70
2017-05-10T17:36:09.840Z,13.50
2017-05-10T17:38:38.408Z,13.30
2017-05-10T17:41:06.915Z,13.20
2017-05-10T17:43:35.445Z,13.10
2017-05-10T17:46:04.003Z,13.10
2017-05-10T17:48:32.818Z,13.00
2017-05-10T17:51:01.395Z,13.00
2017-05-10T17:53:29.966Z,12.90
2017-05-10T17:55:58.494Z,12.80
2017-05-10T17:58:27.019Z,12.70
2017-05-10T18:00:55.583Z,12.60
2017-05-10T18:03:24.211Z,12.50
2017-05-10T18:05:52.745Z,12.50
2017-05-10T18:08:21.321Z,12.50
2017-05-10T18:10:49.841Z,12.50
2017-05-10T18:13:18.373Z,12.40
2017-05-10T18:15:46.965Z,12.40
2017-05-10T18:18:15.560Z,12.10
2017-05-10T18:20:44.101Z,12.00
2017-05-10T18:23:13.039Z,12.00
2017-05-10T18:25:41.548Z,11.80
2017-05-10T18:28:10.060Z,11.70
2017-05-10T18:30:38.611Z,11.50
2017-05-10T18:33:07.326Z,11.40
2017-05-10T18:35:36.249Z,11.20
2017-05-10T18:38:04.889Z,11.10
2017-05-10T18:40:33.413Z,10.90
2017-05-10T18:43:01.956Z,10.90
2017-05-10T18:45:30.555Z,10.80
2017-05-10T18:47:59.100Z,10.70
2017-05-10T18:50:27.629Z,10.50
2017-05-10T18:52:56.207Z,10.50
2017-05-10T18:55:25.427Z,10.40
2017-05-10T18:57:53.973Z,10.40
2017-05-10T19:00:23.309Z,10.20
2017-05-10T19:02:51.892Z,10.10
2017-05-10T19:05:20.435Z,10.10
2017-05-10T19:07:49.022Z,10.10
2017-05-10T19:10:17.629Z,10.10
2017-05-10T19:12:46.149Z,10.00
2017-05-10T19:15:14.717Z,9.90
2017-05-10T19:17:43.979Z,9.90
2017-05-10T19:20:12.512Z,9.80
2017-05-10T19:22:41.082Z,9.60
2017-05-10T19:25:09.606Z,9.60
2017-05-10T19:27:38.130Z,9.50
2017-05-10T19:30:06.684Z,9.40
2017-05-10T19:32:35.207Z,9.40
2017-05-10T19:35:03.724Z,9.30
2017-05-10T19:37:32.421Z,9.20
2017-05-10T19:40:00.954Z,9.20
2017-05-10T19:42:29.485Z,9.10
2017-05-10T19:44:58.078Z,9.00
2017-05-10T19:47:26.639Z,9.00
2017-05-10T19:49:55.170Z,9.00
2017-05-10T19:52:23.738Z,9.00
2017-05-10T19:54:52.272Z,9.00
2017-05-10T19:57:20.822Z,8.90
2017-05-10T19:59:49.380Z,8.90
2017-05-10T20:02:17.930Z,8.80
2017-05-10T20:04:46.452Z,8.90
2017-05-10T20:07:15.020Z,8.90
2017-05-10T20:09:43.539Z,8.90
2017-05-10T20:12:12.057Z,8.90
2017-05-10T20:14:40.661Z,9.00
2017-05-10T20:17:09.194Z,9.00
2017-05-10T20:19:37.754Z,9.00
2017-05-10T20:22:06.353Z,8.90
2017-05-10T20:24:34.895Z,8.80
2017-05-10T20:27:03.435Z,8.80
2017-05-10T20:29:32.739Z,8.70
2017-05-10T20:32:01.286Z,8.70
2017-05-10T20:34:29.834Z,8.70
2017-05-10T20:36:58.518Z,8.60
2017-05-10T20:39:27.058Z,8.60
2017-05-10T20:41:55.584Z,8.60
2017-05-10T20:44:24.169Z,8.70
2017-05-10T20:46:52.827Z,8.60
2017-05-10T20:49:21.410Z,8.60
2017-05-10T20:51:50.001Z,8.50
2017-05-10T20:54:18.553Z,8.40
2017-05-10T20:56:47.103Z,8.30
2017-05-10T20:59:15.677Z,8.20
2017-05-10T21:01:44.204Z,8.10
2017-05-10T21:04:12.736Z,8.10
2017-05-10T21:06:41.368Z,8.10
2017-05-10T21:09:10.013Z,8.00
2017-05-10T21:11:38.547Z,7.90
2017-05-10T21:14:07.129Z,7.80
2017-05-10T21:16:35.650Z,7.80
2017-05-10T21:19:04.189Z,7.80
2017-05-10T21:21:32.789Z,7.80
2017-05-10T21:24:01.317Z,7.60
2017-05-10T21:26:29.838Z,7.60
2017-05-10T21:28:58.512Z,7.50
2017-05-10T21:31:27.042Z,7.50
2017-05-10T21:33:55.733Z,7.50
2017-05-10T21:36:24.328Z,7.50
2017-05-10T21:38:52.871Z,7.60
2017-05-10T21:41:21.427Z,7.60
2017-05-10T21:43:50.093Z,7.70
2017-05-10T21:46:18.632Z,7.70
2017-05-10T21:48:47.173Z,7.60
2017-05-10T21:51:15.743Z,7.60
2017-05-10T21:53:44.281Z,7.50
2017-05-10T21:56:12.842Z,7.40
2017-05-10T21:58:41.440Z,7.40
2017-05-10T22:01:09.961Z,7.40
2017-05-10T22:03:38.487Z,7.40
2017-05-10T22:06:07.069Z,7.30
2017-05-10T22:08:35.611Z,7.30
2017-05-10T22:11:04.151Z,7.30
2017-05-10T22:13:32.750Z,7.10
2017-05-10T22:16:01.302Z,7.10
2017-05-10T22:18:29.849Z,7.20
2017-05-10T22:20:58.411Z,7.20
2017-05-10T22:23:26.972Z,7.10
2017-05-10T22:25:55.505Z,7.10
2017-05-10T22:28:24.083Z,7.20
2017-05-10T22:30:52.625Z,7.10
2017-05-10T22:33:21.158Z,7.00
2017-05-10T22:35:49.727Z,7.00
2017-05-10T22:38:18.251Z,7.00
2017-05-10T22:40:46.796Z,7.10
2017-05-10T22:43:15.381Z,7.00
2017-05-10T22:45:43.917Z,7.00
2017-05-10T22:48:12.435Z,7.00
2017-05-10T22:50:41.024Z,7.00
2017-05-10T22:53:09.539Z,6.90
2017-05-10T22:55:38.068Z,6.90
2017-05-10T22:58:06.644Z,6.90
2017-05-10T23:00:35.156Z,6.90
2017-05-10T23:03:03.698Z,6.80
2017-05-10T23:05:32.257Z,6.70
2017-05-10T23:08:00.797Z,6.80
2017-05-10T23:10:29.331Z,6.80
2017-05-10T23:12:57.895Z,6.70
2017-05-10T23:15:26.438Z,6.70
2017-05-10T23:17:54.958Z,6.70
2017-05-10T23:20:23.524Z,6.80
2017-05-10T23:22:52.054Z,6.70
2017-05-10T23:25:20.585Z,6.70
2017-05-10T23:27:49.154Z,6.70
2017-05-10T23:30:17.683Z,6.60
2017-05-10T23:32:46.202Z,6.70
2017-05-10T23:35:14.781Z,6.70
2017-05-10T23:37:43.315Z,6.80
2017-05-10T23:40:11.821Z,6.70
2017-05-10T23:42:40.379Z,6.80
2017-05-10T23:45:08.915Z,6.80
2017-05-10T23:47:37.425Z,6.80
2017-05-10T23:50:05.966Z,6.90
2017-05-10T23:52:34.485Z,7.00
2017-05-10T23:55:03.731Z,7.00
2017-05-10T23:57:32.307Z,7.00
